sensor_id;sensor_type;location;lat;lon;timestamp;P1;durP1;ratioP1;P2;durP2;ratioP2
14369;SDS011;7268;50.792;0.252;2023-05-10T00:01:52;2.85;;;1.67;;
14369;SDS011;7268;50.792;0.252;2023-05-10T00:04:19;2.75;;;1.73;;
14369;SDS011;7268;50.792;0.252;2023-05-10T00:06:46;3.00;;;1.48;;
14369;SDS011;7268;50.792;0.252;2023-05-10T00:09:15;1.67;;;1.58;;
14369;SDS011;7268;50.792;0.252;2023-05-10T00:11:45;1.63;;;1.20;;
14369;SDS011;7268;50.792;0.252;2023-05-10T00:14:15;1.38;;;0.95;;
14369;SDS011;7268;50.792;0.252;2023-05-10T00:16:42;2.25;;;1.52;;
14369;SDS011;7268;50.792;0.252;2023-05-10T00:19:09;1.30;;;1.20;;
14369;SDS011;7268;50.792;0.252;2023-05-10T00:21:36;2.90;;;2.08;;
14369;SDS011;7268;50.792;0.252;2023-05-10T00:24:05;0.95;;;0.40;;
14369;SDS011;7268;50.792;0.252;2023-05-10T00:26:32;2.47;;;0.30;;
14369;SDS011;7268;50.792;0.252;2023-05-10T00:28:59;1.85;;;0.80;;
14369;SDS011;7268;50.792;0.252;2023-05-10T00:31:29;0.95;;;0.77;;
14369;SDS011;7268;50.792;0.252;2023-05-10T00:33:56;1.52;;;1.42;;
14369;SDS011;7268;50.792;0.252;2023-05-10T00:36:23;2.10;;;1.38;;
14369;SDS011;7268;50.792;0.252;2023-05-10T00:38:50;1.90;;;1.50;;
14369;SDS011;7268;50.792;0.252;2023-05-10T00:41:17;0.73;;;0.70;;
14369;SDS011;7268;50.792;0.252;2023-05-10T00:43:44;1.00;;;1.00;;
14369;SDS011;7268;50.792;0.252;2023-05-10T00:46:11;1.20;;;1.08;;
14369;SDS011;7268;50.792;0.252;2023-05-10T00:48:38;1.00;;;0.95;;
14369;SDS011;7268;50.792;0.252;2023-05-10T00:51:05;1.23;;;1.13;;
14369;SDS011;7268;50.792;0.252;2023-05-10T00:53:32;0.88;;;0.77;;
14369;SDS011;7268;50.792;0.252;2023-05-10T00:56:01;3.05;;;0.55;;
14369;SDS011;7268;50.792;0.252;2023-05-10T00:58:29;0.55;;;0.13;;
14369;SDS011;7268;50.792;0.252;2023-05-10T01:00:57;1.83;;;1.15;;
14369;SDS011;7268;50.792;0.252;2023-05-10T01:03:26;0.75;;;0.65;;
14369;SDS011;7268;50.792;0.252;2023-05-10T01:05:57;1.20;;;1.10;;
14369;SDS011;7268;50.792;0.252;2023-05-10T01:08:24;2.42;;;1.30;;
14369;SDS011;7268;50.792;0.252;2023-05-10T01:10:59;0.90;;;0.90;;
14369;SDS011;7268;50.792;0.252;2023-05-10T01:16:08;1.13;;;0.03;;
14369;SDS011;7268;50.792;0.252;2023-05-10T01:18:38;0.30;;;0.10;;
14369;SDS011;7268;50.792;0.252;2023-05-10T01:35:15;1.58;;;1.48;;
14369;SDS011;7268;50.792;0.252;2023-05-10T01:38:04;0.90;;;0.77;;
14369;SDS011;7268;50.792;0.252;2023-05-10T01:40:48;1.35;;;1.20;;
14369;SDS011;7268;50.792;0.252;2023-05-10T01:43:37;1.65;;;0.98;;
14369;SDS011;7268;50.792;0.252;2023-05-10T01:46:20;1.92;;;1.25;;
14369;SDS011;7268;50.792;0.252;2023-05-10T01:48:55;4.20;;;1.40;;
14369;SDS011;7268;50.792;0.252;2023-05-10T01:51:34;0.85;;;0.80;;
14369;SDS011;7268;50.792;0.252;2023-05-10T01:54:07;1.65;;;1.10;;
14369;SDS011;7268;50.792;0.252;2023-05-10T01:56:37;1.17;;;1.08;;
14369;SDS011;7268;50.792;0.252;2023-05-10T01:59:06;1.88;;;1.55;;
14369;SDS011;7268;50.792;0.252;2023-05-10T02:01:36;1.50;;;1.20;;
14369;SDS011;7268;50.792;0.252;2023-05-10T02:04:05;1.10;;;0.77;;
14369;SDS011;7268;50.792;0.252;2023-05-10T02:06:34;0.40;;;0.10;;
14369;SDS011;7268;50.792;0.252;2023-05-10T02:09:02;0.50;;;0.20;;
14369;SDS011;7268;50.792;0.252;2023-05-10T02:11:30;0.88;;;0.10;;
14369;SDS011;7268;50.792;0.252;2023-05-10T02:13:59;2.20;;;1.95;;
14369;SDS011;7268;50.792;0.252;2023-05-10T02:16:27;1.20;;;1.10;;
14369;SDS011;7268;50.792;0.252;2023-05-10T02:18:57;1.35;;;0.82;;
14369;SDS011;7268;50.792;0.252;2023-05-10T02:21:28;3.90;;;1.55;;
14369;SDS011;7268;50.792;0.252;2023-05-10T02:23:57;1.30;;;0.43;;
14369;SDS011;7268;50.792;0.252;2023-05-10T02:26:25;1.83;;;1.05;;
14369;SDS011;7268;50.792;0.252;2023-05-10T02:28:53;4.20;;;1.27;;
14369;SDS011;7268;50.792;0.252;2023-05-10T02:31:22;1.25;;;1.15;;
14369;SDS011;7268;50.792;0.252;2023-05-10T02:36:17;1.17;;;0.88;;
14369;SDS011;7268;50.792;0.252;2023-05-10T02:38:47;1.10;;;0.90;;
14369;SDS011;7268;50.792;0.252;2023-05-10T02:41:16;3.58;;;1.52;;
14369;SDS011;7268;50.792;0.252;2023-05-10T02:43:47;2.33;;;1.67;;
14369;SDS011;7268;50.792;0.252;2023-05-10T02:46:21;4.03;;;1.80;;
14369;SDS011;7268;50.792;0.252;2023-05-10T02:48:48;6.57;;;0.32;;
14369;SDS011;7268;50.792;0.252;2023-05-10T02:51:17;2.03;;;0.60;;
14369;SDS011;7268;50.792;0.252;2023-05-10T02:53:45;1.85;;;1.38;;
14369;SDS011;7268;50.792;0.252;2023-05-10T02:56:18;1.38;;;0.88;;
14369;SDS011;7268;50.792;0.252;2023-05-10T02:58:52;1.88;;;1.77;;
14369;SDS011;7268;50.792;0.252;2023-05-10T03:01:19;3.78;;;1.27;;
14369;SDS011;7268;50.792;0.252;2023-05-10T03:03:45;3.90;;;1.58;;
14369;SDS011;7268;50.792;0.252;2023-05-10T03:06:12;1.77;;;0.75;;
14369;SDS011;7268;50.792;0.252;2023-05-10T03:08:39;1.70;;;1.42;;
14369;SDS011;7268;50.792;0.252;2023-05-10T03:14:07;3.38;;;1.95;;
14369;SDS011;7268;50.792;0.252;2023-05-10T03:17:00;3.53;;;2.55;;
14369;SDS011;7268;50.792;0.252;2023-05-10T03:19:53;2.75;;;1.92;;
14369;SDS011;7268;50.792;0.252;2023-05-10T03:22:25;2.42;;;1.60;;
14369;SDS011;7268;50.792;0.252;2023-05-10T03:25:04;2.72;;;1.70;;
14369;SDS011;7268;50.792;0.252;2023-05-10T03:27:33;2.92;;;1.70;;
14369;SDS011;7268;50.792;0.252;2023-05-10T03:30:02;5.35;;;2.45;;
14369;SDS011;7268;50.792;0.252;2023-05-10T03:32:30;3.65;;;2.42;;
14369;SDS011;7268;50.792;0.252;2023-05-10T03:35:00;3.75;;;2.10;;
14369;SDS011;7268;50.792;0.252;2023-05-10T03:37:32;3.28;;;2.42;;
14369;SDS011;7268;50.792;0.252;2023-05-10T03:39:59;2.67;;;2.15;;
14369;SDS011;7268;50.792;0.252;2023-05-10T03:42:26;4.30;;;1.65;;
14369;SDS011;7268;50.792;0.252;2023-05-10T03:44:53;2.58;;;1.55;;
14369;SDS011;7268;50.792;0.252;2023-05-10T03:47:25;5.65;;;3.00;;
14369;SDS011;7268;50.792;0.252;2023-05-10T03:49:52;5.03;;;2.70;;
14369;SDS011;7268;50.792;0.252;2023-05-10T03:52:19;3.65;;;1.92;;
14369;SDS011;7268;50.792;0.252;2023-05-10T03:54:48;6.85;;;2.63;;
14369;SDS011;7268;50.792;0.252;2023-05-10T03:57:15;3.78;;;2.78;;
14369;SDS011;7268;50.792;0.252;2023-05-10T03:59:44;6.28;;;2.03;;
14369;SDS011;7268;50.792;0.252;2023-05-10T04:02:15;2.45;;;2.17;;
14369;SDS011;7268;50.792;0.252;2023-05-10T04:04:42;6.60;;;2.53;;
14369;SDS011;7268;50.792;0.252;2023-05-10T04:07:09;4.13;;;2.78;;
14369;SDS011;7268;50.792;0.252;2023-05-10T04:09:39;4.03;;;3.22;;
14369;SDS011;7268;50.792;0.252;2023-05-10T04:12:06;4.03;;;3.22;;
14369;SDS011;7268;50.792;0.252;2023-05-10T04:14:36;4.03;;;3.35;;
14369;SDS011;7268;50.792;0.252;2023-05-10T04:17:03;6.05;;;3.05;;
14369;SDS011;7268;50.792;0.252;2023-05-10T04:19:30;4.53;;;2.53;;
14369;SDS011;7268;50.792;0.252;2023-05-10T04:21:58;4.55;;;3.33;;
14369;SDS011;7268;50.792;0.252;2023-05-10T04:24:28;6.38;;;3.95;;
14369;SDS011;7268;50.792;0.252;2023-05-10T04:26:55;4.68;;;2.95;;
14369;SDS011;7268;50.792;0.252;2023-05-10T04:29:30;2.42;;;2.10;;
14369;SDS011;7268;50.792;0.252;2023-05-10T04:31:57;3.92;;;2.75;;
14369;SDS011;7268;50.792;0.252;2023-05-10T04:34:27;4.47;;;2.47;;
14369;SDS011;7268;50.792;0.252;2023-05-10T04:36:56;4.53;;;2.67;;
14369;SDS011;7268;50.792;0.252;2023-05-10T04:39:23;3.17;;;2.03;;
14369;SDS011;7268;50.792;0.252;2023-05-10T04:41:50;4.22;;;2.78;;
14369;SDS011;7268;50.792;0.252;2023-05-10T04:44:19;4.45;;;2.60;;
14369;SDS011;7268;50.792;0.252;2023-05-10T04:46:49;6.47;;;3.50;;
14369;SDS011;7268;50.792;0.252;2023-05-10T04:49:16;4.38;;;3.03;;
14369;SDS011;7268;50.792;0.252;2023-05-10T04:51:47;3.83;;;2.22;;
14369;SDS011;7268;50.792;0.252;2023-05-10T04:54:20;6.10;;;2.58;;
14369;SDS011;7268;50.792;0.252;2023-05-10T04:56:49;9.20;;;3.65;;
14369;SDS011;7268;50.792;0.252;2023-05-10T04:59:19;5.85;;;3.85;;
14369;SDS011;7268;50.792;0.252;2023-05-10T05:01:46;6.75;;;2.78;;
14369;SDS011;7268;50.792;0.252;2023-05-10T05:04:12;5.55;;;2.83;;
14369;SDS011;7268;50.792;0.252;2023-05-10T05:09:07;3.75;;;2.63;;
14369;SDS011;7268;50.792;0.252;2023-05-10T05:11:37;6.40;;;0.90;;
14369;SDS011;7268;50.792;0.252;2023-05-10T05:14:05;3.35;;;1.52;;
14369;SDS011;7268;50.792;0.252;2023-05-10T05:16:36;6.13;;;2.17;;
14369;SDS011;7268;50.792;0.252;2023-05-10T05:19:05;4.35;;;2.55;;
14369;SDS011;7268;50.792;0.252;2023-05-10T05:21:32;4.82;;;3.05;;
14369;SDS011;7268;50.792;0.252;2023-05-10T05:23:59;6.88;;;1.58;;
14369;SDS011;7268;50.792;0.252;2023-05-10T05:26:27;7.00;;;3.78;;
14369;SDS011;7268;50.792;0.252;2023-05-10T05:28:54;6.90;;;1.65;;
14369;SDS011;7268;50.792;0.252;2023-05-10T05:31:20;3.35;;;2.53;;
14369;SDS011;7268;50.792;0.252;2023-05-10T05:33:47;4.88;;;3.03;;
14369;SDS011;7268;50.792;0.252;2023-05-10T05:36:14;7.90;;;3.10;;
14369;SDS011;7268;50.792;0.252;2023-05-10T05:38:41;7.45;;;2.95;;
14369;SDS011;7268;50.792;0.252;2023-05-10T05:41:09;6.72;;;2.83;;
14369;SDS011;7268;50.792;0.252;2023-05-10T05:43:36;3.05;;;1.55;;
14369;SDS011;7268;50.792;0.252;2023-05-10T05:48:31;5.82;;;2.85;;
14369;SDS011;7268;50.792;0.252;2023-05-10T05:50:58;6.40;;;2.67;;
14369;SDS011;7268;50.792;0.252;2023-05-10T05:53:25;3.35;;;2.08;;
14369;SDS011;7268;50.792;0.252;2023-05-10T05:55:58;3.08;;;1.13;;
14369;SDS011;7268;50.792;0.252;2023-05-10T05:58:25;6.57;;;3.17;;
14369;SDS011;7268;50.792;0.252;2023-05-10T06:00:55;5.93;;;2.75;;
14369;SDS011;7268;50.792;0.252;2023-05-10T06:03:24;2.67;;;1.15;;
14369;SDS011;7268;50.792;0.252;2023-05-10T06:05:51;6.68;;;2.75;;
14369;SDS011;7268;50.792;0.252;2023-05-10T06:08:21;5.43;;;3.08;;
14369;SDS011;7268;50.792;0.252;2023-05-10T06:10:48;2.60;;;1.52;;
14369;SDS011;7268;50.792;0.252;2023-05-10T06:13:15;4.70;;;2.20;;
14369;SDS011;7268;50.792;0.252;2023-05-10T06:15:42;6.65;;;2.80;;
14369;SDS011;7268;50.792;0.252;2023-05-10T06:18:09;4.20;;;2.35;;
14369;SDS011;7268;50.792;0.252;2023-05-10T06:20:36;8.15;;;2.55;;
14369;SDS011;7268;50.792;0.252;2023-05-10T06:23:03;4.50;;;2.33;;
14369;SDS011;7268;50.792;0.252;2023-05-10T06:25:30;9.10;;;1.15;;
14369;SDS011;7268;50.792;0.252;2023-05-10T06:27:57;3.13;;;2.20;;
14369;SDS011;7268;50.792;0.252;2023-05-10T06:30:24;5.07;;;1.95;;
14369;SDS011;7268;50.792;0.252;2023-05-10T06:32:55;4.15;;;0.93;;
14369;SDS011;7268;50.792;0.252;2023-05-10T06:35:23;2.85;;;1.52;;
14369;SDS011;7268;50.792;0.252;2023-05-10T06:37:50;2.85;;;1.70;;
14369;SDS011;7268;50.792;0.252;2023-05-10T06:40:17;4.65;;;1.35;;
14369;SDS011;7268;50.792;0.252;2023-05-10T06:42:44;7.03;;;1.20;;
14369;SDS011;7268;50.792;0.252;2023-05-10T06:47:41;1.02;;;0.40;;
14369;SDS011;7268;50.792;0.252;2023-05-10T06:50:08;3.28;;;1.05;;
14369;SDS011;7268;50.792;0.252;2023-05-10T06:52:36;4.00;;;1.55;;
14369;SDS011;7268;50.792;0.252;2023-05-10T06:55:03;3.60;;;1.63;;
14369;SDS011;7268;50.792;0.252;2023-05-10T06:59:58;3.10;;;1.38;;
14369;SDS011;7268;50.792;0.252;2023-05-10T07:04:52;4.13;;;0.70;;
14369;SDS011;7268;50.792;0.252;2023-05-10T07:07:20;2.97;;;1.33;;
14369;SDS011;7268;50.792;0.252;2023-05-10T07:09:47;4.70;;;1.83;;
14369;SDS011;7268;50.792;0.252;2023-05-10T07:12:15;2.38;;;1.85;;
14369;SDS011;7268;50.792;0.252;2023-05-10T07:14:42;2.92;;;1.52;;
14369;SDS011;7268;50.792;0.252;2023-05-10T07:17:09;4.15;;;0.52;;
14369;SDS011;7268;50.792;0.252;2023-05-10T07:19:36;3.90;;;1.02;;
14369;SDS011;7268;50.792;0.252;2023-05-10T07:22:03;3.63;;;1.70;;
14369;SDS011;7268;50.792;0.252;2023-05-10T07:24:30;3.72;;;1.17;;
14369;SDS011;7268;50.792;0.252;2023-05-10T07:26:57;2.13;;;1.02;;
14369;SDS011;7268;50.792;0.252;2023-05-10T07:29:24;3.30;;;1.15;;
14369;SDS011;7268;50.792;0.252;2023-05-10T07:31:51;3.60;;;2.90;;
14369;SDS011;7268;50.792;0.252;2023-05-10T07:34:18;3.03;;;2.58;;
14369;SDS011;7268;50.792;0.252;2023-05-10T07:36:45;2.38;;;1.23;;
14369;SDS011;7268;50.792;0.252;2023-05-10T07:39:12;7.38;;;0.80;;
14369;SDS011;7268;50.792;0.252;2023-05-10T07:41:49;5.05;;;1.08;;
14369;SDS011;7268;50.792;0.252;2023-05-10T07:44:16;1.65;;;1.05;;
14369;SDS011;7268;50.792;0.252;2023-05-10T07:46:45;2.20;;;0.77;;
14369;SDS011;7268;50.792;0.252;2023-05-10T07:49:13;4.65;;;0.73;;
14369;SDS011;7268;50.792;0.252;2023-05-10T07:51:40;5.93;;;1.33;;
14369;SDS011;7268;50.792;0.252;2023-05-10T07:56:34;1.90;;;0.90;;
14369;SDS011;7268;50.792;0.252;2023-05-10T07:59:02;2.53;;;0.98;;
14369;SDS011;7268;50.792;0.252;2023-05-10T08:01:31;2.38;;;0.20;;
14369;SDS011;7268;50.792;0.252;2023-05-10T08:03:59;3.00;;;0.52;;
14369;SDS011;7268;50.792;0.252;2023-05-10T08:06:26;3.33;;;0.95;;
14369;SDS011;7268;50.792;0.252;2023-05-10T08:08:56;2.97;;;0.75;;
14369;SDS011;7268;50.792;0.252;2023-05-10T08:11:23;4.22;;;0.73;;
14369;SDS011;7268;50.792;0.252;2023-05-10T08:13:51;3.33;;;0.95;;
14369;SDS011;7268;50.792;0.252;2023-05-10T08:16:18;3.83;;;1.17;;
14369;SDS011;7268;50.792;0.252;2023-05-10T08:18:46;3.47;;;2.03;;
14369;SDS011;7268;50.792;0.252;2023-05-10T08:21:13;3.63;;;1.10;;
14369;SDS011;7268;50.792;0.252;2023-05-10T08:23:42;3.00;;;1.02;;
14369;SDS011;7268;50.792;0.252;2023-05-10T08:26:12;4.70;;;1.52;;
14369;SDS011;7268;50.792;0.252;2023-05-10T08:28:39;3.53;;;1.05;;
14369;SDS011;7268;50.792;0.252;2023-05-10T08:31:06;4.75;;;2.13;;
14369;SDS011;7268;50.792;0.252;2023-05-10T08:33:33;6.50;;;2.42;;
14369;SDS011;7268;50.792;0.252;2023-05-10T08:36:00;2.40;;;1.20;;
14369;SDS011;7268;50.792;0.252;2023-05-10T08:38:27;4.60;;;1.60;;
14369;SDS011;7268;50.792;0.252;2023-05-10T08:40:55;3.45;;;1.58;;
14369;SDS011;7268;50.792;0.252;2023-05-10T08:43:28;4.25;;;0.73;;
14369;SDS011;7268;50.792;0.252;2023-05-10T08:46:01;4.88;;;0.50;;
14369;SDS011;7268;50.792;0.252;2023-05-10T08:48:30;6.10;;;1.33;;
14369;SDS011;7268;50.792;0.252;2023-05-10T08:51:00;5.03;;;1.55;;
14369;SDS011;7268;50.792;0.252;2023-05-10T08:53:28;4.10;;;1.52;;
14369;SDS011;7268;50.792;0.252;2023-05-10T08:56:00;7.07;;;2.13;;
14369;SDS011;7268;50.792;0.252;2023-05-10T08:58:28;5.55;;;0.73;;
14369;SDS011;7268;50.792;0.252;2023-05-10T09:00:55;3.63;;;1.27;;
14369;SDS011;7268;50.792;0.252;2023-05-10T09:03:24;4.35;;;1.67;;
14369;SDS011;7268;50.792;0.252;2023-05-10T09:05:51;4.93;;;1.77;;
14369;SDS011;7268;50.792;0.252;2023-05-10T09:08:19;4.88;;;1.67;;
14369;SDS011;7268;50.792;0.252;2023-05-10T09:10:48;5.38;;;1.80;;
14369;SDS011;7268;50.792;0.252;2023-05-10T09:13:15;7.50;;;1.80;;
14369;SDS011;7268;50.792;0.252;2023-05-10T09:15:44;5.45;;;2.10;;
14369;SDS011;7268;50.792;0.252;2023-05-10T09:18:12;3.97;;;1.60;;
14369;SDS011;7268;50.792;0.252;2023-05-10T09:20:43;3.97;;;1.15;;
14369;SDS011;7268;50.792;0.252;2023-05-10T09:23:11;2.90;;;1.30;;
14369;SDS011;7268;50.792;0.252;2023-05-10T09:25:38;6.20;;;2.38;;
14369;SDS011;7268;50.792;0.252;2023-05-10T09:28:08;3.75;;;1.08;;
14369;SDS011;7268;50.792;0.252;2023-05-10T09:30:36;6.15;;;1.23;;
14369;SDS011;7268;50.792;0.252;2023-05-10T09:33:03;4.70;;;0.65;;
14369;SDS011;7268;50.792;0.252;2023-05-10T09:35:31;2.55;;;1.52;;
14369;SDS011;7268;50.792;0.252;2023-05-10T09:38:00;5.40;;;1.13;;
14369;SDS011;7268;50.792;0.252;2023-05-10T09:40:29;5.85;;;1.42;;
14369;SDS011;7268;50.792;0.252;2023-05-10T09:43:04;3.22;;;0.80;;
14369;SDS011;7268;50.792;0.252;2023-05-10T09:45:34;9.07;;;2.22;;
14369;SDS011;7268;50.792;0.252;2023-05-10T09:48:04;6.15;;;1.75;;
14369;SDS011;7268;50.792;0.252;2023-05-10T09:50:32;3.80;;;0.40;;
14369;SDS011;7268;50.792;0.252;2023-05-10T09:53:02;5.95;;;1.33;;
14369;SDS011;7268;50.792;0.252;2023-05-10T09:58:02;5.75;;;2.05;;
14369;SDS011;7268;50.792;0.252;2023-05-10T10:00:34;3.63;;;0.30;;
14369;SDS011;7268;50.792;0.252;2023-05-10T10:03:02;3.75;;;1.55;;
14369;SDS011;7268;50.792;0.252;2023-05-10T10:05:30;6.82;;;1.48;;
14369;SDS011;7268;50.792;0.252;2023-05-10T10:07:59;5.97;;;1.45;;
14369;SDS011;7268;50.792;0.252;2023-05-10T10:10:28;3.92;;;1.33;;
14369;SDS011;7268;50.792;0.252;2023-05-10T10:12:57;4.47;;;1.13;;
14369;SDS011;7268;50.792;0.252;2023-05-10T10:15:26;4.63;;;1.90;;
14369;SDS011;7268;50.792;0.252;2023-05-10T10:17:53;5.13;;;1.45;;
14369;SDS011;7268;50.792;0.252;2023-05-10T10:22:49;6.18;;;1.75;;
14369;SDS011;7268;50.792;0.252;2023-05-10T10:25:16;4.82;;;0.85;;
14369;SDS011;7268;50.792;0.252;2023-05-10T10:30:37;1.98;;;0.80;;
14369;SDS011;7268;50.792;0.252;2023-05-10T10:36:14;2.50;;;1.58;;
14369;SDS011;7268;50.792;0.252;2023-05-10T10:41:27;6.13;;;1.88;;
14369;SDS011;7268;50.792;0.252;2023-05-10T10:49:33;3.00;;;1.23;;
14369;SDS011;7268;50.792;0.252;2023-05-10T10:52:20;4.47;;;0.70;;
14369;SDS011;7268;50.792;0.252;2023-05-10T10:55:03;3.40;;;1.42;;
14369;SDS011;7268;50.792;0.252;2023-05-10T11:03:10;4.40;;;1.17;;
14369;SDS011;7268;50.792;0.252;2023-05-10T11:05:46;5.57;;;1.35;;
14369;SDS011;7268;50.792;0.252;2023-05-10T11:08:18;8.40;;;0.90;;
14369;SDS011;7268;50.792;0.252;2023-05-10T11:13:31;4.22;;;1.75;;
14369;SDS011;7268;50.792;0.252;2023-05-10T11:16:11;4.38;;;1.63;;
14369;SDS011;7268;50.792;0.252;2023-05-10T11:19:02;4.15;;;1.20;;
14369;SDS011;7268;50.792;0.252;2023-05-10T11:21:31;5.90;;;1.48;;
14369;SDS011;7268;50.792;0.252;2023-05-10T11:24:01;3.17;;;1.33;;
14369;SDS011;7268;50.792;0.252;2023-05-10T11:26:33;6.55;;;1.00;;
14369;SDS011;7268;50.792;0.252;2023-05-10T11:29:01;4.68;;;1.80;;
14369;SDS011;7268;50.792;0.252;2023-05-10T11:31:30;2.58;;;1.20;;
14369;SDS011;7268;50.792;0.252;2023-05-10T11:33:58;7.35;;;1.05;;
14369;SDS011;7268;50.792;0.252;2023-05-10T11:36:28;6.97;;;1.67;;
14369;SDS011;7268;50.792;0.252;2023-05-10T11:39:02;4.78;;;2.50;;
14369;SDS011;7268;50.792;0.252;2023-05-10T11:41:30;8.95;;;3.17;;
14369;SDS011;7268;50.792;0.252;2023-05-10T11:43:57;5.07;;;1.58;;
14369;SDS011;7268;50.792;0.252;2023-05-10T11:46:25;5.97;;;2.17;;
14369;SDS011;7268;50.792;0.252;2023-05-10T11:48:56;5.03;;;1.77;;
14369;SDS011;7268;50.792;0.252;2023-05-10T11:51:26;4.85;;;1.23;;
14369;SDS011;7268;50.792;0.252;2023-05-10T11:53:54;13.30;;;2.15;;
14369;SDS011;7268;50.792;0.252;2023-05-10T11:56:22;5.03;;;2.92;;
14369;SDS011;7268;50.792;0.252;2023-05-10T11:58:53;4.78;;;1.52;;
14369;SDS011;7268;50.792;0.252;2023-05-10T12:01:22;6.78;;;1.65;;
14369;SDS011;7268;50.792;0.252;2023-05-10T12:03:53;2.53;;;0.30;;
14369;SDS011;7268;50.792;0.252;2023-05-10T12:06:21;4.38;;;1.52;;
14369;SDS011;7268;50.792;0.252;2023-05-10T12:08:48;1.50;;;0.50;;
14369;SDS011;7268;50.792;0.252;2023-05-10T12:11:19;8.45;;;1.92;;
14369;SDS011;7268;50.792;0.252;2023-05-10T12:13:48;5.35;;;1.90;;
14369;SDS011;7268;50.792;0.252;2023-05-10T12:16:19;3.78;;;1.30;;
14369;SDS011;7268;50.792;0.252;2023-05-10T12:18:48;4.65;;;1.75;;
14369;SDS011;7268;50.792;0.252;2023-05-10T12:21:18;5.93;;;1.67;;
14369;SDS011;7268;50.792;0.252;2023-05-10T12:23:50;4.85;;;1.40;;
14369;SDS011;7268;50.792;0.252;2023-05-10T12:26:21;1.70;;;1.10;;
14369;SDS011;7268;50.792;0.252;2023-05-10T12:28:48;5.07;;;1.27;;
14369;SDS011;7268;50.792;0.252;2023-05-10T12:31:17;3.85;;;1.52;;
14369;SDS011;7268;50.792;0.252;2023-05-10T12:33:45;6.78;;;1.55;;
14369;SDS011;7268;50.792;0.252;2023-05-10T12:36:14;6.90;;;1.05;;
14369;SDS011;7268;50.792;0.252;2023-05-10T12:38:42;3.13;;;1.15;;
14369;SDS011;7268;50.792;0.252;2023-05-10T12:41:17;3.30;;;1.42;;
14369;SDS011;7268;50.792;0.252;2023-05-10T12:43:45;4.43;;;0.50;;
14369;SDS011;7268;50.792;0.252;2023-05-10T12:48:41;5.97;;;0.60;;
14369;SDS011;7268;50.792;0.252;2023-05-10T12:51:08;10.35;;;1.15;;
14369;SDS011;7268;50.792;0.252;2023-05-10T12:53:38;3.75;;;1.17;;
14369;SDS011;7268;50.792;0.252;2023-05-10T12:56:09;8.25;;;0.40;;
14369;SDS011;7268;50.792;0.252;2023-05-10T12:58:38;4.65;;;0.73;;
14369;SDS011;7268;50.792;0.252;2023-05-10T13:01:05;6.20;;;1.35;;
14369;SDS011;7268;50.792;0.252;2023-05-10T13:03:32;6.22;;;1.73;;
14369;SDS011;7268;50.792;0.252;2023-05-10T13:05:59;10.73;;;0.77;;
14369;SDS011;7268;50.792;0.252;2023-05-10T13:08:26;3.63;;;0.38;;
14369;SDS011;7268;50.792;0.252;2023-05-10T13:10:53;4.10;;;0.45;;
14369;SDS011;7268;50.792;0.252;2023-05-10T13:13:20;6.68;;;0.88;;
14369;SDS011;7268;50.792;0.252;2023-05-10T13:15:49;2.63;;;1.35;;
14369;SDS011;7268;50.792;0.252;2023-05-10T13:18:16;2.03;;;1.00;;
14369;SDS011;7268;50.792;0.252;2023-05-10T13:20:43;6.15;;;0.85;;
14369;SDS011;7268;50.792;0.252;2023-05-10T13:23:10;1.48;;;0.98;;
14369;SDS011;7268;50.792;0.252;2023-05-10T13:25:37;4.25;;;0.95;;
14369;SDS011;7268;50.792;0.252;2023-05-10T13:28:04;2.78;;;0.82;;
14369;SDS011;7268;50.792;0.252;2023-05-10T13:30:31;4.15;;;1.38;;
14369;SDS011;7268;50.792;0.252;2023-05-10T13:32:58;3.30;;;1.02;;
14369;SDS011;7268;50.792;0.252;2023-05-10T13:35:24;1.70;;;1.40;;
14369;SDS011;7268;50.792;0.252;2023-05-10T13:37:51;4.00;;;0.82;;
14369;SDS011;7268;50.792;0.252;2023-05-10T13:40:19;2.40;;;1.48;;
14369;SDS011;7268;50.792;0.252;2023-05-10T13:42:46;3.05;;;1.55;;
14369;SDS011;7268;50.792;0.252;2023-05-10T13:45:13;6.50;;;1.08;;
14369;SDS011;7268;50.792;0.252;2023-05-10T13:47:40;6.63;;;0.80;;
14369;SDS011;7268;50.792;0.252;2023-05-10T13:50:07;1.17;;;0.35;;
14369;SDS011;7268;50.792;0.252;2023-05-10T13:52:34;3.42;;;0.95;;
14369;SDS011;7268;50.792;0.252;2023-05-10T13:55:01;2.95;;;1.17;;
14369;SDS011;7268;50.792;0.252;2023-05-10T13:57:28;4.18;;;0.85;;
14369;SDS011;7268;50.792;0.252;2023-05-10T13:59:56;2.50;;;0.32;;
14369;SDS011;7268;50.792;0.252;2023-05-10T14:02:23;5.03;;;0.82;;
14369;SDS011;7268;50.792;0.252;2023-05-10T14:04:51;2.42;;;1.23;;
14369;SDS011;7268;50.792;0.252;2023-05-10T14:07:17;3.22;;;0.90;;
14369;SDS011;7268;50.792;0.252;2023-05-10T14:09:44;3.40;;;1.02;;
14369;SDS011;7268;50.792;0.252;2023-05-10T14:12:11;2.47;;;0.32;;
14369;SDS011;7268;50.792;0.252;2023-05-10T14:14:38;1.60;;;0.52;;
14369;SDS011;7268;50.792;0.252;2023-05-10T14:17:05;2.78;;;0.15;;
14369;SDS011;7268;50.792;0.252;2023-05-10T14:19:32;6.25;;;1.23;;
14369;SDS011;7268;50.792;0.252;2023-05-10T14:22:01;5.95;;;1.15;;
14369;SDS011;7268;50.792;0.252;2023-05-10T14:24:28;2.53;;;0.90;;
14369;SDS011;7268;50.792;0.252;2023-05-10T14:26:55;5.93;;;0.52;;
14369;SDS011;7268;50.792;0.252;2023-05-10T14:29:22;3.90;;;0.30;;
14369;SDS011;7268;50.792;0.252;2023-05-10T14:31:52;3.30;;;0.88;;
14369;SDS011;7268;50.792;0.252;2023-05-10T14:34:18;1.20;;;0.40;;
14369;SDS011;7268;50.792;0.252;2023-05-10T14:36:46;1.48;;;0.30;;
14369;SDS011;7268;50.792;0.252;2023-05-10T14:39:13;2.45;;;0.28;;
14369;SDS011;7268;50.792;0.252;2023-05-10T14:41:40;6.03;;;1.65;;
14369;SDS011;7268;50.792;0.252;2023-05-10T14:44:10;5.82;;;1.15;;
14369;SDS011;7268;50.792;0.252;2023-05-10T14:46:37;1.65;;;0.82;;
14369;SDS011;7268;50.792;0.252;2023-05-10T14:49:05;4.05;;;1.40;;
14369;SDS011;7268;50.792;0.252;2023-05-10T14:51:33;1.40;;;1.30;;
14369;SDS011;7268;50.792;0.252;2023-05-10T14:54:05;4.93;;;0.82;;
14369;SDS011;7268;50.792;0.252;2023-05-10T14:56:32;4.00;;;1.55;;
14369;SDS011;7268;50.792;0.252;2023-05-10T14:59:01;3.85;;;0.85;;
14369;SDS011;7268;50.792;0.252;2023-05-10T15:01:30;2.83;;;1.10;;
14369;SDS011;7268;50.792;0.252;2023-05-10T15:04:02;4.28;;;0.20;;
14369;SDS011;7268;50.792;0.252;2023-05-10T15:06:32;2.05;;;0.38;;
14369;SDS011;7268;50.792;0.252;2023-05-10T15:09:00;3.15;;;1.27;;
14369;SDS011;7268;50.792;0.252;2023-05-10T15:11:27;3.95;;;1.20;;
14369;SDS011;7268;50.792;0.252;2023-05-10T15:13:55;2.72;;;0.93;;
14369;SDS011;7268;50.792;0.252;2023-05-10T15:16:26;5.25;;;0.85;;
14369;SDS011;7268;50.792;0.252;2023-05-10T15:18:52;4.43;;;0.52;;
14369;SDS011;7268;50.792;0.252;2023-05-10T15:21:19;1.48;;;0.88;;
14369;SDS011;7268;50.792;0.252;2023-05-10T15:23:46;1.30;;;0.32;;
14369;SDS011;7268;50.792;0.252;2023-05-10T15:26:15;4.43;;;1.05;;
14369;SDS011;7268;50.792;0.252;2023-05-10T15:28:44;3.40;;;1.25;;
14369;SDS011;7268;50.792;0.252;2023-05-10T15:31:12;0.80;;;0.57;;
14369;SDS011;7268;50.792;0.252;2023-05-10T15:33:38;4.75;;;0.77;;
14369;SDS011;7268;50.792;0.252;2023-05-10T15:36:07;2.05;;;0.93;;
14369;SDS011;7268;50.792;0.252;2023-05-10T15:38:35;1.92;;;0.20;;
14369;SDS011;7268;50.792;0.252;2023-05-10T15:43:30;4.65;;;0.88;;
14369;SDS011;7268;50.792;0.252;2023-05-10T15:45:56;4.53;;;1.30;;
14369;SDS011;7268;50.792;0.252;2023-05-10T15:48:23;4.43;;;1.38;;
14369;SDS011;7268;50.792;0.252;2023-05-10T15:50:50;3.25;;;0.90;;
14369;SDS011;7268;50.792;0.252;2023-05-10T15:53:17;2.53;;;1.00;;
14369;SDS011;7268;50.792;0.252;2023-05-10T15:55:44;1.95;;;1.23;;
14369;SDS011;7268;50.792;0.252;2023-05-10T15:58:10;5.03;;;0.50;;
14369;SDS011;7268;50.792;0.252;2023-05-10T16:00:37;9.75;;;0.70;;
14369;SDS011;7268;50.792;0.252;2023-05-10T16:03:04;3.47;;;0.98;;
14369;SDS011;7268;50.792;0.252;2023-05-10T16:05:32;2.45;;;1.25;;
14369;SDS011;7268;50.792;0.252;2023-05-10T16:08:02;5.20;;;1.02;;
14369;SDS011;7268;50.792;0.252;2023-05-10T16:10:32;1.73;;;1.17;;
14369;SDS011;7268;50.792;0.252;2023-05-10T16:12:59;3.10;;;0.10;;
14369;SDS011;7268;50.792;0.252;2023-05-10T16:15:27;3.42;;;0.20;;
14369;SDS011;7268;50.792;0.252;2023-05-10T16:17:54;4.60;;;0.93;;
14369;SDS011;7268;50.792;0.252;2023-05-10T16:20:21;4.82;;;1.08;;